createdAt,value
2018-11-21T00:01:30.844Z,34.43
2018-11-21T00:04:54.760Z,31.37
2018-11-21T00:08:18.666Z,41.17
2018-11-21T00:11:42.580Z,38.97
2018-11-21T00:14:47.149Z,36.63
2018-11-21T00:18:11.084Z,34.50
2018-11-21T00:21:35.108Z,35.90
2018-11-21T00:25:01.895Z,39.73
2018-11-21T00:28:25.816Z,36.10
2018-11-21T00:31:49.726Z,36.20
2018-11-21T00:35:13.676Z,35.70
2018-11-21T00:38:37.544Z,39.97
2018-11-21T00:42:01.404Z,36.70
2018-11-21T00:45:25.343Z,35.67
2018-11-21T00:48:49.330Z,41.37
2018-11-21T00:52:13.274Z,44.63
2018-11-21T00:55:37.150Z,45.23
2018-11-21T00:59:01.099Z,36.23
2018-11-21T01:02:18.244Z,39.23
2018-11-21T01:05:42.082Z,40.13
2018-11-21T01:09:07.718Z,36.87
2018-11-21T01:12:31.560Z,38.37
2018-11-21T01:15:55.468Z,37.07
2018-11-21T01:19:19.564Z,40.90
2018-11-21T01:22:43.461Z,39.70
2018-11-21T01:26:07.376Z,33.57
2018-11-21T01:29:31.285Z,39.93
2018-11-21T01:32:55.157Z,37.50
2018-11-21T01:36:19.050Z,43.10
2018-11-21T01:39:42.940Z,40.87
2018-11-21T01:43:07.019Z,35.27
2018-11-21T01:46:30.944Z,44.33
2018-11-21T01:49:54.863Z,44.87
2018-11-21T01:53:18.721Z,34.00
2018-11-21T01:56:42.679Z,39.17
2018-11-21T02:00:08.628Z,41.93
2018-11-21T02:03:32.553Z,42.53
2018-11-21T02:06:56.452Z,45.97
2018-11-21T02:10:20.679Z,36.80
2018-11-21T02:13:44.551Z,35.73
2018-11-21T02:17:08.415Z,36.30
2018-11-21T02:20:32.387Z,37.23
2018-11-21T02:23:56.190Z,36.77
2018-11-21T02:27:20.101Z,35.37
2018-11-21T02:30:44.080Z,38.80
2018-11-21T02:34:08.000Z,36.77
2018-11-21T02:37:31.892Z,36.67
2018-11-21T02:40:55.753Z,43.83
2018-11-21T02:44:19.718Z,41.53
2018-11-21T02:47:43.601Z,40.57
2018-11-21T02:51:07.480Z,44.73
2018-11-21T02:54:31.351Z,43.97
2018-11-21T02:57:55.218Z,45.97
2018-11-21T03:01:19.095Z,39.90
2018-11-21T03:04:42.931Z,36.43
2018-11-21T03:08:06.908Z,39.47
2018-11-21T03:11:30.786Z,41.07
2018-11-21T03:14:54.694Z,37.47
2018-11-21T03:18:18.585Z,36.53
2018-11-21T03:21:42.535Z,45.03
2018-11-21T03:25:06.443Z,47.27
2018-11-21T03:28:30.322Z,59.77
2018-11-21T03:31:54.151Z,48.67
2018-11-21T03:35:18.146Z,51.27
2018-11-21T03:38:42.189Z,54.77
2018-11-21T03:42:06.652Z,46.67
2018-11-21T03:45:30.472Z,50.20
2018-11-21T03:48:54.343Z,51.50
2018-11-21T03:52:18.224Z,39.17
2018-11-21T03:55:42.347Z,42.10
2018-11-21T03:59:06.572Z,50.80
2018-11-21T04:02:30.663Z,48.80
2018-11-21T04:05:54.612Z,56.23
2018-11-21T04:09:18.580Z,52.47
2018-11-21T04:12:42.391Z,55.93
2018-11-21T04:16:06.456Z,57.37
2018-11-21T04:19:30.343Z,48.13
2018-11-21T04:22:54.143Z,50.20
2018-11-21T04:26:18.551Z,51.27
2018-11-21T04:29:42.475Z,50.70
2018-11-21T04:33:06.309Z,56.77
2018-11-21T04:36:30.225Z,47.37
2018-11-21T04:39:54.134Z,49.43
2018-11-21T04:43:18.030Z,41.10
2018-11-21T04:46:41.935Z,49.97
2018-11-21T04:50:06.473Z,49.43
2018-11-21T04:53:30.359Z,41.27
2018-11-21T04:56:54.324Z,39.13
2018-11-21T05:00:18.151Z,41.53
2018-11-21T05:03:42.046Z,40.37
2018-11-21T05:07:06.011Z,39.87
2018-11-21T05:10:30.015Z,42.83
2018-11-21T05:13:53.868Z,37.43
2018-11-21T05:17:17.802Z,42.80
2018-11-21T05:20:41.696Z,37.03
2018-11-21T05:24:05.791Z,38.20
2018-11-21T05:27:29.912Z,33.37
2018-11-21T05:30:54.129Z,38.13
2018-11-21T05:34:18.111Z,32.83
2018-11-21T05:37:42.010Z,31.93
2018-11-21T05:41:06.219Z,33.60
2018-11-21T05:44:31.541Z,32.63
2018-11-21T05:47:54.218Z,33.47
2018-11-21T05:51:18.075Z,30.00
2018-11-21T05:54:41.995Z,26.50
2018-11-21T05:58:06.346Z,26.67
2018-11-21T06:01:30.202Z,28.53
2018-11-21T06:04:54.044Z,29.63
2018-11-21T06:08:17.940Z,26.33
2018-11-21T06:11:42.606Z,24.07
2018-11-21T06:15:06.925Z,27.80
2018-11-21T06:18:30.839Z,28.60
2018-11-21T06:21:55.150Z,27.67
2018-11-21T06:25:19.091Z,26.93
2018-11-21T06:28:42.931Z,27.27
2018-11-21T06:32:07.238Z,27.73
2018-11-21T06:35:31.330Z,47.73
2018-11-21T06:38:55.665Z,45.03
2018-11-21T06:42:33.635Z,40.47
2018-11-21T06:45:43.881Z,35.83
2018-11-21T06:49:08.173Z,33.70
2018-11-21T06:52:32.169Z,35.80
2018-11-21T06:55:56.046Z,29.57
2018-11-21T06:59:19.917Z,29.23
2018-11-21T07:02:43.881Z,31.50
2018-11-21T07:06:07.769Z,25.63
2018-11-21T07:09:31.632Z,25.83
2018-11-21T07:12:55.502Z,25.93
2018-11-21T07:16:19.388Z,26.93
2018-11-21T07:19:43.371Z,26.90
2018-11-21T07:23:07.201Z,21.70
2018-11-21T07:26:31.065Z,29.10
2018-11-21T07:29:54.935Z,24.63
2018-11-21T07:33:18.844Z,27.53
2018-11-21T07:36:48.067Z,25.67
2018-11-21T07:40:13.407Z,25.13
2018-11-21T07:43:37.335Z,27.83
2018-11-21T07:47:01.205Z,25.00
2018-11-21T07:50:25.042Z,25.33
2018-11-21T07:53:48.905Z,22.17
2018-11-21T07:57:33.911Z,18.30
2018-11-21T08:01:20.051Z,18.70
2018-11-21T08:05:02.819Z,18.67
2018-11-21T08:08:34.779Z,17.90
2018-11-21T08:12:17.624Z,18.53
2018-11-21T08:16:00.491Z,16.90
2018-11-21T08:19:43.328Z,19.93
2018-11-21T08:23:26.181Z,17.07
2018-11-21T08:27:09.015Z,19.70
2018-11-21T08:30:32.964Z,20.47
2018-11-21T08:33:56.810Z,18.83
2018-11-21T08:37:20.736Z,18.00
2018-11-21T08:40:44.875Z,16.63
2018-11-21T08:44:08.768Z,19.40
2018-11-21T08:47:32.664Z,17.70
2018-11-21T08:50:56.543Z,20.50
2018-11-21T08:54:20.381Z,19.07
2018-11-21T08:57:44.258Z,15.90
2018-11-21T09:01:07.785Z,17.77
2018-11-21T09:04:31.726Z,17.13
2018-11-21T09:07:55.663Z,19.20
2018-11-21T09:11:19.560Z,18.37
2018-11-21T09:14:43.388Z,17.77
2018-11-21T09:18:07.282Z,20.70
2018-11-21T09:21:31.235Z,19.97
2018-11-21T09:24:55.064Z,22.00
2018-11-21T09:28:18.985Z,21.03
2018-11-21T09:31:42.861Z,19.50
2018-11-21T09:35:09.123Z,21.37
2018-11-21T09:38:33.019Z,16.70
2018-11-21T09:41:56.897Z,13.97
2018-11-21T09:45:21.747Z,43.63
2018-11-21T09:48:45.553Z,18.07
2018-11-21T09:52:09.684Z,12.20
2018-11-21T09:55:33.525Z,43.10
2018-11-21T09:58:57.442Z,15.13
2018-11-21T10:02:59.980Z,16.97
2018-11-21T10:06:25.768Z,14.93
2018-11-21T10:09:50.941Z,8.83
2018-11-21T10:13:14.847Z,9.47
2018-11-21T10:16:38.785Z,12.40
2018-11-21T10:20:02.646Z,8.57
2018-11-21T10:23:26.558Z,9.40
2018-11-21T10:26:50.438Z,10.40
2018-11-21T10:30:14.310Z,9.90
2018-11-21T10:33:38.234Z,11.87
2018-11-21T10:37:02.183Z,10.30
2018-11-21T10:40:26.044Z,8.23
2018-11-21T10:43:49.913Z,11.00
2018-11-21T10:47:13.832Z,8.77
2018-11-21T10:50:37.726Z,7.70
2018-11-21T10:54:01.603Z,7.83
2018-11-21T10:57:25.556Z,9.03
2018-11-21T11:00:47.738Z,9.17
2018-11-21T11:03:54.917Z,9.53
2018-11-21T11:07:17.159Z,16.87
2018-11-21T11:10:40.723Z,8.17
2018-11-21T11:14:10.243Z,8.27
2018-11-21T11:17:36.617Z,8.13
2018-11-21T11:21:06.325Z,9.10
2018-11-21T11:24:26.395Z,6.93
2018-11-21T11:27:52.930Z,7.30
2018-11-21T11:31:28.568Z,9.03
2018-11-21T11:34:57.924Z,8.80
2018-11-21T11:38:20.152Z,14.80
2018-11-21T11:41:55.536Z,9.43
2018-11-21T11:45:16.817Z,9.17
2018-11-21T11:48:39.160Z,6.40
2018-11-21T11:51:55.937Z,7.30
2018-11-21T11:55:22.147Z,7.73
2018-11-21T11:58:44.178Z,6.93
2018-11-21T12:02:26.098Z,6.23
2018-11-21T12:05:48.344Z,6.00
2018-11-21T12:09:01.273Z,7.63
2018-11-21T12:12:24.236Z,8.67
2018-11-21T12:15:47.728Z,7.80
2018-11-21T12:19:10.086Z,10.47
2018-11-21T12:22:33.615Z,5.90
2018-11-21T12:25:57.240Z,7.60
2018-11-21T12:29:19.744Z,8.43
2018-11-21T12:32:45.919Z,5.57
2018-11-21T12:36:07.999Z,7.57
2018-11-21T12:39:30.039Z,7.13
2018-11-21T12:42:51.987Z,6.60
2018-11-21T12:46:30.489Z,5.50
2018-11-21T12:49:54.081Z,7.20
2018-11-21T12:53:17.584Z,6.87
2018-11-21T12:56:56.136Z,5.07
2018-11-21T13:00:38.105Z,8.60
2018-11-21T13:04:16.671Z,8.63
2018-11-21T13:07:40.354Z,24.20
2018-11-21T13:11:03.318Z,7.67
2018-11-21T13:14:25.379Z,7.37
2018-11-21T13:17:54.923Z,6.20
2018-11-21T13:21:17.218Z,6.70
2018-11-21T13:24:52.774Z,6.43
2018-11-21T13:28:16.374Z,7.70
2018-11-21T13:31:42.629Z,7.17
2018-11-21T13:35:08.930Z,6.93
2018-11-21T13:38:31.940Z,7.53
2018-11-21T13:41:58.444Z,8.03
2018-11-21T13:45:28.035Z,10.90
2018-11-21T13:48:55.432Z,20.30
2018-11-21T13:52:12.028Z,9.37
2018-11-21T13:55:16.708Z,5.33
2018-11-21T13:58:21.228Z,8.07
2018-11-21T14:01:25.831Z,7.57
2018-11-21T14:04:30.369Z,10.43
2018-11-21T14:07:34.951Z,10.37
2018-11-21T14:10:39.597Z,6.60
2018-11-21T14:13:44.208Z,6.47
2018-11-21T14:16:48.819Z,6.17
2018-11-21T14:19:53.435Z,7.20
2018-11-21T14:22:58.113Z,7.97
2018-11-21T14:26:02.700Z,6.97
